TAR722 DTTA-LFPO
Flight info
| Callsign | TAR722 |
|---|---|
| Flight time | 2h 5m |
| Altitude | 34000 |
| Route | TOBIB3C TOBIB UA725 OSMAR DCT PIRIX DCT UPDUT DCT CORSI DCT OMEDA DCT MERLU DCT PIGOS DCT BARSO DCT OKTET DCT GIPNO DCT BULOL DCT IDAVO DCT ARDOL |
| Aircraft | A320/M-SDE3FGHIRWY/LB1 |
Departure
| Time | 2026-05-03 20:46 |
|---|---|
| Airport | Tunis Carthage International Airport (DTTA) |
Arrival
| Time | 2026-05-03 22:51 |
|---|---|
| Airport | Paris-Orly Airport (LFPO) |
| Time | Latitude | Longitude | Altitude | Speed | Heading |
|---|---|---|---|---|---|
| 2026-05-03 20:25 | 36.84237 | 10.21831 | 28 ft | 0 kts | 282° |
| 2026-05-03 20:40 | 36.84235 | 10.21842 | 30 ft | 4 kts | 283° |
| 2026-05-03 20:40 | 36.84227 | 10.21874 | 30 ft | 4 kts | 291° |
| 2026-05-03 20:40 | 36.84215 | 10.21904 | 30 ft | 4 kts | 313° |
| 2026-05-03 20:40 | 36.84197 | 10.21917 | 30 ft | 2 kts | 10° |
| 2026-05-03 20:41 | 36.84195 | 10.21917 | 30 ft | 0 kts | 12° |
| 2026-05-03 20:42 | 36.84207 | 10.21920 | 30 ft | 7 kts | 12° |
| 2026-05-03 20:42 | 36.84270 | 10.21937 | 30 ft | 9 kts | 12° |
| 2026-05-03 20:43 | 36.84343 | 10.21957 | 30 ft | 16 kts | 12° |
| 2026-05-03 20:43 | 36.84448 | 10.22010 | 30 ft | 16 kts | 47° |
| 2026-05-03 20:43 | 36.84503 | 10.22135 | 30 ft | 17 kts | 94° |
| 2026-05-03 20:43 | 36.84539 | 10.22265 | 30 ft | 18 kts | 24° |
| 2026-05-03 20:44 | 36.84660 | 10.22301 | 30 ft | 18 kts | 12° |
| 2026-05-03 20:44 | 36.84782 | 10.22334 | 30 ft | 18 kts | 12° |
| 2026-05-03 20:44 | 36.84898 | 10.22365 | 30 ft | 16 kts | 13° |
| 2026-05-03 20:44 | 36.85002 | 10.22396 | 31 ft | 14 kts | 13° |
| 2026-05-03 20:45 | 36.85090 | 10.22420 | 32 ft | 11 kts | 13° |
| 2026-05-03 20:45 | 36.85152 | 10.22440 | 35 ft | 7 kts | 20° |
| 2026-05-03 20:45 | 36.85153 | 10.22602 | 35 ft | 47 kts | 112° |
| 2026-05-03 20:45 | 36.84932 | 10.23252 | 29 ft | 112 kts | 114° |
| 2026-05-03 20:46 | 36.84569 | 10.24344 | 109 ft | 150 kts | 111° |
| 2026-05-03 20:46 | 36.84186 | 10.25532 | 747 ft | 145 kts | 114° |
| 2026-05-03 20:46 | 36.83794 | 10.26673 | 1425 ft | 142 kts | 119° |
| 2026-05-03 20:46 | 36.83403 | 10.27818 | 1897 ft | 152 kts | 118° |
| 2026-05-03 20:47 | 36.82951 | 10.29117 | 2136 ft | 174 kts | 124° |
| 2026-05-03 20:47 | 36.82037 | 10.30151 | 2373 ft | 189 kts | 162° |
| 2026-05-03 20:47 | 36.80698 | 10.30177 | 2793 ft | 202 kts | 201° |
| 2026-05-03 20:47 | 36.79608 | 10.29043 | 3352 ft | 213 kts | 243° |
| 2026-05-03 20:48 | 36.79363 | 10.27852 | 3764 ft | 218 kts | 272° |
| 2026-05-03 20:48 | 36.79904 | 10.26105 | 4474 ft | 223 kts | 313° |
| 2026-05-03 20:48 | 36.81180 | 10.25007 | 5284 ft | 224 kts | 332° |
| 2026-05-03 20:48 | 36.82602 | 10.24198 | 6059 ft | 225 kts | 336° |
| 2026-05-03 20:49 | 36.84058 | 10.23460 | 6806 ft | 226 kts | 337° |
| 2026-05-03 20:49 | 36.85556 | 10.22813 | 7491 ft | 232 kts | 346° |
| 2026-05-03 20:49 | 36.87219 | 10.22385 | 7803 ft | 256 kts | 345° |
| 2026-05-03 20:49 | 36.89026 | 10.21873 | 8241 ft | 273 kts | 345° |
| 2026-05-03 20:50 | 36.90891 | 10.21319 | 9008 ft | 277 kts | 343° |
| 2026-05-03 20:50 | 36.92781 | 10.20741 | 9763 ft | 282 kts | 342° |
| 2026-05-03 20:50 | 36.94704 | 10.20143 | 10431 ft | 290 kts | 343° |
| 2026-05-03 20:50 | 36.96744 | 10.19506 | 10646 ft | 314 kts | 343° |
| 2026-05-03 20:51 | 36.98926 | 10.18824 | 11023 ft | 329 kts | 343° |
| 2026-05-03 20:51 | 37.01161 | 10.18128 | 11684 ft | 334 kts | 343° |
| 2026-05-03 20:51 | 37.03432 | 10.17423 | 12409 ft | 337 kts | 343° |
| 2026-05-03 20:51 | 37.05727 | 10.16713 | 13096 ft | 342 kts | 344° |
| 2026-05-03 20:52 | 37.08056 | 10.15994 | 13775 ft | 346 kts | 344° |
| 2026-05-03 20:52 | 37.10375 | 10.15273 | 14404 ft | 349 kts | 343° |
| 2026-05-03 20:52 | 37.12740 | 10.14532 | 15041 ft | 352 kts | 343° |
| 2026-05-03 20:52 | 37.15130 | 10.13781 | 15680 ft | 354 kts | 343° |
| 2026-05-03 20:53 | 37.17529 | 10.13029 | 16337 ft | 355 kts | 343° |
| 2026-05-03 20:53 | 37.19936 | 10.12277 | 16980 ft | 357 kts | 343° |
| 2026-05-03 20:53 | 37.22356 | 10.11522 | 17618 ft | 359 kts | 343° |
| 2026-05-03 20:53 | 37.24789 | 10.10763 | 18257 ft | 361 kts | 342° |
| 2026-05-03 20:54 | 37.27235 | 10.09997 | 18812 ft | 364 kts | 342° |
| 2026-05-03 20:54 | 37.32184 | 10.08436 | 19827 ft | 370 kts | 342° |
| 2026-05-03 20:54 | 37.34695 | 10.07643 | 20319 ft | 374 kts | 342° |
| 2026-05-03 20:55 | 37.37233 | 10.06846 | 20790 ft | 378 kts | 342° |
| 2026-05-03 20:55 | 37.39797 | 10.06043 | 21266 ft | 382 kts | 342° |
| 2026-05-03 20:55 | 37.42390 | 10.05229 | 21745 ft | 386 kts | 342° |
| 2026-05-03 20:55 | 37.45013 | 10.04404 | 22205 ft | 390 kts | 342° |
| 2026-05-03 20:56 | 37.47653 | 10.03572 | 22672 ft | 394 kts | 342° |
| 2026-05-03 20:56 | 37.50292 | 10.02739 | 23143 ft | 397 kts | 342° |
| 2026-05-03 20:56 | 37.52994 | 10.01886 | 23605 ft | 401 kts | 342° |
| 2026-05-03 20:56 | 37.55713 | 10.01028 | 24000 ft | 404 kts | 342° |
| 2026-05-03 20:57 | 37.58445 | 10.00164 | 24392 ft | 407 kts | 342° |
| 2026-05-03 20:57 | 37.61202 | 9.99289 | 24775 ft | 409 kts | 342° |
| 2026-05-03 20:57 | 37.63998 | 9.98398 | 25155 ft | 412 kts | 342° |
| 2026-05-03 20:57 | 37.66786 | 9.97508 | 25521 ft | 414 kts | 342° |
| 2026-05-03 20:58 | 37.69585 | 9.96613 | 25878 ft | 417 kts | 342° |
| 2026-05-03 20:58 | 37.72407 | 9.95711 | 26236 ft | 419 kts | 342° |
| 2026-05-03 20:58 | 37.75206 | 9.94817 | 26581 ft | 421 kts | 342° |
| 2026-05-03 20:58 | 37.78094 | 9.93896 | 26946 ft | 423 kts | 342° |
| 2026-05-03 20:59 | 37.80923 | 9.92995 | 27274 ft | 426 kts | 342° |
| 2026-05-03 20:59 | 37.83810 | 9.92079 | 27607 ft | 428 kts | 342° |
| 2026-05-03 20:59 | 37.86703 | 9.91160 | 27938 ft | 430 kts | 342° |
| 2026-05-03 20:59 | 37.89623 | 9.90230 | 28252 ft | 433 kts | 342° |
| 2026-05-03 21:00 | 37.92555 | 9.89292 | 28574 ft | 435 kts | 342° |
| 2026-05-03 21:00 | 37.94501 | 9.88669 | 28772 ft | 437 kts | 342° |
| 2026-05-03 21:00 | 37.98464 | 9.87400 | 29184 ft | 440 kts | 342° |
| 2026-05-03 21:00 | 38.01435 | 9.86449 | 29487 ft | 442 kts | 342° |
| 2026-05-03 21:01 | 38.04426 | 9.85487 | 29777 ft | 444 kts | 342° |
| 2026-05-03 21:01 | 38.07425 | 9.84522 | 30066 ft | 446 kts | 342° |
| 2026-05-03 21:01 | 38.10402 | 9.83567 | 30314 ft | 448 kts | 342° |
| 2026-05-03 21:01 | 38.13432 | 9.82596 | 30548 ft | 450 kts | 343° |
| 2026-05-03 21:02 | 38.16472 | 9.81620 | 30753 ft | 452 kts | 343° |
| 2026-05-03 21:02 | 38.19537 | 9.80635 | 30972 ft | 454 kts | 343° |
| 2026-05-03 21:02 | 38.22600 | 9.79648 | 31177 ft | 456 kts | 343° |
| 2026-05-03 21:02 | 38.25680 | 9.78657 | 31441 ft | 456 kts | 343° |
| 2026-05-03 21:03 | 38.28750 | 9.77671 | 31738 ft | 455 kts | 343° |
| 2026-05-03 21:03 | 38.31824 | 9.76685 | 32042 ft | 455 kts | 343° |
| 2026-05-03 21:03 | 38.34895 | 9.75702 | 32326 ft | 454 kts | 343° |
| 2026-05-03 21:03 | 38.37960 | 9.74721 | 32603 ft | 454 kts | 344° |
| 2026-05-03 21:04 | 38.41029 | 9.73739 | 32894 ft | 454 kts | 344° |
| 2026-05-03 21:04 | 38.44088 | 9.72761 | 33187 ft | 453 kts | 345° |
| 2026-05-03 21:04 | 38.47146 | 9.71780 | 33442 ft | 454 kts | 344° |
| 2026-05-03 21:04 | 38.50175 | 9.70804 | 33719 ft | 454 kts | 344° |
| 2026-05-03 21:05 | 38.53238 | 9.69814 | 33989 ft | 454 kts | 344° |
| 2026-05-03 21:05 | 38.56306 | 9.68822 | 34121 ft | 452 kts | 343° |
| 2026-05-03 21:05 | 38.62343 | 9.66868 | 34139 ft | 444 kts | 344° |
| 2026-05-03 21:06 | 38.68323 | 9.64930 | 34144 ft | 443 kts | 343° |
| 2026-05-03 21:06 | 38.74308 | 9.62991 | 34149 ft | 442 kts | 344° |
| 2026-05-03 21:07 | 38.80264 | 9.61055 | 34147 ft | 441 kts | 344° |
| 2026-05-03 21:07 | 38.86181 | 9.59129 | 34152 ft | 441 kts | 344° |
| 2026-05-03 21:08 | 38.92137 | 9.57196 | 34153 ft | 441 kts | 345° |
| 2026-05-03 21:08 | 38.98113 | 9.55387 | 34168 ft | 441 kts | 345° |
| 2026-05-03 21:09 | 39.04092 | 9.53628 | 34167 ft | 441 kts | 345° |
| 2026-05-03 21:09 | 39.10061 | 9.51851 | 34165 ft | 440 kts | 345° |
| 2026-05-03 21:10 | 39.16031 | 9.50047 | 34160 ft | 441 kts | 345° |
| 2026-05-03 21:10 | 39.22001 | 9.48234 | 34172 ft | 440 kts | 344° |
| 2026-05-03 21:11 | 39.27969 | 9.46427 | 34173 ft | 440 kts | 344° |
| 2026-05-03 21:11 | 39.33924 | 9.44616 | 34167 ft | 440 kts | 345° |
| 2026-05-03 21:12 | 39.39892 | 9.42797 | 34166 ft | 441 kts | 345° |
| 2026-05-03 21:12 | 39.45865 | 9.40986 | 34169 ft | 441 kts | 344° |
| 2026-05-03 21:13 | 39.51847 | 9.39164 | 34165 ft | 441 kts | 344° |
| 2026-05-03 21:13 | 39.57776 | 9.37350 | 34168 ft | 441 kts | 344° |
| 2026-05-03 21:14 | 39.63753 | 9.35511 | 34167 ft | 441 kts | 344° |
| 2026-05-03 21:14 | 39.69734 | 9.33670 | 34172 ft | 441 kts | 344° |
| 2026-05-03 21:15 | 39.75711 | 9.31832 | 34172 ft | 441 kts | 344° |
| 2026-05-03 21:15 | 39.81684 | 9.29992 | 34173 ft | 441 kts | 344° |
| 2026-05-03 21:16 | 39.87658 | 9.28154 | 34168 ft | 441 kts | 344° |
| 2026-05-03 21:16 | 39.93595 | 9.26324 | 34170 ft | 440 kts | 344° |
| 2026-05-03 21:17 | 39.98595 | 9.24768 | 34170 ft | 440 kts | 344° |
| 2026-05-03 21:17 | 40.05523 | 9.22612 | 34161 ft | 440 kts | 344° |
| 2026-05-03 21:18 | 40.11489 | 9.20759 | 34173 ft | 440 kts | 344° |
| 2026-05-03 21:18 | 40.17449 | 9.18913 | 34173 ft | 439 kts | 344° |
| 2026-05-03 21:19 | 40.23357 | 9.17072 | 34169 ft | 439 kts | 344° |
| 2026-05-03 21:19 | 40.29301 | 9.15209 | 34164 ft | 439 kts | 344° |
| 2026-05-03 21:20 | 40.35239 | 9.13362 | 34160 ft | 439 kts | 344° |
| 2026-05-03 21:20 | 40.41182 | 9.11500 | 34157 ft | 438 kts | 343° |
| 2026-05-03 21:21 | 40.47119 | 9.09633 | 34152 ft | 439 kts | 344° |
| 2026-05-03 21:21 | 40.53055 | 9.07762 | 34139 ft | 439 kts | 344° |
| 2026-05-03 21:22 | 40.59003 | 9.05890 | 34144 ft | 439 kts | 343° |
| 2026-05-03 21:22 | 40.64944 | 9.04017 | 34144 ft | 439 kts | 343° |
| 2026-05-03 21:23 | 40.70846 | 9.02143 | 34142 ft | 439 kts | 343° |
| 2026-05-03 21:23 | 40.76782 | 9.00257 | 34133 ft | 439 kts | 343° |
| 2026-05-03 21:24 | 40.82722 | 8.98371 | 34144 ft | 439 kts | 343° |
| 2026-05-03 21:24 | 40.88661 | 8.96474 | 34142 ft | 438 kts | 343° |
| 2026-05-03 21:25 | 40.94595 | 8.94585 | 34133 ft | 438 kts | 343° |
| 2026-05-03 21:25 | 41.00529 | 8.92700 | 34137 ft | 438 kts | 343° |
| 2026-05-03 21:26 | 41.06458 | 8.90808 | 34132 ft | 438 kts | 343° |
| 2026-05-03 21:26 | 41.12381 | 8.88907 | 34128 ft | 438 kts | 343° |
| 2026-05-03 21:27 | 41.18299 | 8.87009 | 34124 ft | 438 kts | 343° |
| 2026-05-03 21:27 | 41.24182 | 8.85106 | 34133 ft | 437 kts | 343° |
| 2026-05-03 21:28 | 41.30023 | 8.82901 | 34127 ft | 435 kts | 339° |
| 2026-05-03 21:28 | 41.35756 | 8.80297 | 34125 ft | 434 kts | 337° |
| 2026-05-03 21:29 | 41.41462 | 8.77619 | 34121 ft | 435 kts | 337° |
| 2026-05-03 21:29 | 41.47193 | 8.75014 | 34118 ft | 435 kts | 338° |
| 2026-05-03 21:30 | 41.52901 | 8.72470 | 34121 ft | 435 kts | 338° |
| 2026-05-03 21:30 | 41.58651 | 8.69921 | 34112 ft | 435 kts | 338° |
| 2026-05-03 21:31 | 41.64400 | 8.67355 | 34101 ft | 436 kts | 338° |
| 2026-05-03 21:31 | 41.70152 | 8.64756 | 34107 ft | 436 kts | 338° |
| 2026-05-03 21:32 | 41.75907 | 8.62154 | 34101 ft | 436 kts | 338° |
| 2026-05-03 21:32 | 41.81653 | 8.59556 | 34103 ft | 436 kts | 338° |
| 2026-05-03 21:33 | 41.87417 | 8.56952 | 34105 ft | 436 kts | 338° |
| 2026-05-03 21:33 | 41.93135 | 8.54362 | 34107 ft | 437 kts | 338° |
| 2026-05-03 21:34 | 41.98891 | 8.51746 | 34114 ft | 436 kts | 338° |
| 2026-05-03 21:34 | 42.03677 | 8.49571 | 34117 ft | 436 kts | 338° |
| 2026-05-03 21:35 | 42.09424 | 8.46959 | 34116 ft | 436 kts | 338° |
| 2026-05-03 21:35 | 42.15174 | 8.44336 | 34114 ft | 436 kts | 337° |
| 2026-05-03 21:36 | 42.20919 | 8.41705 | 34092 ft | 436 kts | 337° |
| 2026-05-03 21:36 | 42.26658 | 8.39071 | 34091 ft | 436 kts | 337° |
| 2026-05-03 21:37 | 42.32391 | 8.36377 | 34101 ft | 434 kts | 333° |
| 2026-05-03 21:37 | 42.37691 | 8.32605 | 34105 ft | 430 kts | 327° |
| 2026-05-03 21:38 | 42.42934 | 8.28671 | 34100 ft | 431 kts | 327° |
| 2026-05-03 21:38 | 42.48189 | 8.24745 | 34095 ft | 432 kts | 327° |
| 2026-05-03 21:39 | 42.53445 | 8.20795 | 34096 ft | 432 kts | 327° |
| 2026-05-03 21:39 | 42.58709 | 8.16827 | 34103 ft | 432 kts | 327° |
| 2026-05-03 21:40 | 42.63968 | 8.12859 | 34107 ft | 432 kts | 327° |
| 2026-05-03 21:40 | 42.69235 | 8.08883 | 34108 ft | 432 kts | 327° |
| 2026-05-03 21:41 | 42.74459 | 8.04929 | 34122 ft | 433 kts | 327° |
| 2026-05-03 21:41 | 42.79722 | 8.00938 | 34124 ft | 433 kts | 327° |
| 2026-05-03 21:42 | 42.84979 | 7.96938 | 34138 ft | 433 kts | 327° |
| 2026-05-03 21:42 | 42.90231 | 7.92933 | 34130 ft | 433 kts | 327° |
| 2026-05-03 21:43 | 42.95495 | 7.88915 | 34126 ft | 433 kts | 327° |
| 2026-05-03 21:43 | 43.00761 | 7.84890 | 34125 ft | 434 kts | 326° |
| 2026-05-03 21:44 | 43.06032 | 7.80856 | 34126 ft | 433 kts | 326° |
| 2026-05-03 21:44 | 43.11259 | 7.76834 | 34124 ft | 433 kts | 326° |
| 2026-05-03 21:45 | 43.16506 | 7.72777 | 34128 ft | 433 kts | 326° |
| 2026-05-03 21:45 | 43.21763 | 7.68706 | 34142 ft | 433 kts | 326° |
| 2026-05-03 21:46 | 43.27007 | 7.64649 | 34138 ft | 432 kts | 326° |
| 2026-05-03 21:46 | 43.32242 | 7.60586 | 34128 ft | 432 kts | 326° |
| 2026-05-03 21:47 | 43.37433 | 7.56537 | 34125 ft | 432 kts | 326° |
| 2026-05-03 21:47 | 43.42654 | 7.52466 | 34142 ft | 431 kts | 326° |
| 2026-05-03 21:48 | 43.47881 | 7.48388 | 34135 ft | 431 kts | 326° |
| 2026-05-03 21:48 | 43.53089 | 7.44308 | 34132 ft | 430 kts | 326° |
| 2026-05-03 21:49 | 43.58296 | 7.40220 | 34129 ft | 430 kts | 326° |
| 2026-05-03 21:49 | 43.63472 | 7.36102 | 34150 ft | 429 kts | 324° |
| 2026-05-03 21:50 | 43.68470 | 7.31639 | 34149 ft | 426 kts | 321° |
| 2026-05-03 21:50 | 43.73362 | 7.27003 | 34144 ft | 426 kts | 321° |
| 2026-05-03 21:51 | 43.78264 | 7.22407 | 34142 ft | 426 kts | 321° |
| 2026-05-03 21:51 | 43.83200 | 7.17873 | 34143 ft | 426 kts | 322° |
| 2026-05-03 21:52 | 43.88146 | 7.13345 | 34137 ft | 425 kts | 322° |
| 2026-05-03 21:52 | 43.93078 | 7.08804 | 34129 ft | 425 kts | 321° |
| 2026-05-03 21:53 | 43.97973 | 7.04272 | 34129 ft | 425 kts | 321° |
| 2026-05-03 21:53 | 44.02905 | 6.99703 | 34142 ft | 426 kts | 321° |
| 2026-05-03 21:54 | 44.07834 | 6.95122 | 34131 ft | 426 kts | 322° |
| 2026-05-03 21:54 | 44.12758 | 6.90538 | 34129 ft | 426 kts | 321° |
| 2026-05-03 21:55 | 44.17687 | 6.85938 | 34129 ft | 426 kts | 321° |
| 2026-05-03 21:55 | 44.22616 | 6.81316 | 34131 ft | 427 kts | 321° |
| 2026-05-03 21:56 | 44.27546 | 6.76694 | 34124 ft | 428 kts | 321° |
| 2026-05-03 21:56 | 44.32489 | 6.72062 | 34122 ft | 428 kts | 321° |
| 2026-05-03 21:57 | 44.37409 | 6.67439 | 34109 ft | 428 kts | 321° |
| 2026-05-03 21:57 | 44.42352 | 6.62776 | 34129 ft | 429 kts | 321° |
| 2026-05-03 21:58 | 44.47296 | 6.58101 | 34121 ft | 428 kts | 321° |
| 2026-05-03 21:58 | 44.52234 | 6.53415 | 34118 ft | 428 kts | 321° |
| 2026-05-03 21:59 | 44.57171 | 6.48727 | 34110 ft | 428 kts | 321° |
| 2026-05-03 21:59 | 44.62101 | 6.44051 | 34126 ft | 428 kts | 321° |
| 2026-05-03 22:00 | 44.67047 | 6.39350 | 34125 ft | 429 kts | 321° |
| 2026-05-03 22:00 | 44.71982 | 6.34643 | 34116 ft | 429 kts | 321° |
| 2026-05-03 22:01 | 44.76888 | 6.29945 | 34121 ft | 429 kts | 321° |
| 2026-05-03 22:01 | 44.81818 | 6.25216 | 34114 ft | 428 kts | 321° |
| 2026-05-03 22:02 | 44.86742 | 6.20484 | 34097 ft | 428 kts | 321° |
| 2026-05-03 22:02 | 44.91667 | 6.15752 | 34082 ft | 428 kts | 321° |
| 2026-05-03 22:03 | 44.96587 | 6.11011 | 34100 ft | 428 kts | 321° |
| 2026-05-03 22:03 | 45.01514 | 6.06256 | 34085 ft | 430 kts | 321° |
| 2026-05-03 22:04 | 45.06417 | 6.01507 | 34088 ft | 430 kts | 321° |
| 2026-05-03 22:04 | 45.11358 | 5.96709 | 34065 ft | 430 kts | 321° |
| 2026-05-03 22:05 | 45.16299 | 5.91892 | 34062 ft | 431 kts | 321° |
| 2026-05-03 22:05 | 45.21233 | 5.87088 | 34059 ft | 430 kts | 321° |
| 2026-05-03 22:06 | 45.26169 | 5.82277 | 34064 ft | 430 kts | 321° |
| 2026-05-03 22:06 | 45.31094 | 5.77463 | 34069 ft | 430 kts | 320° |
| 2026-05-03 22:07 | 45.35990 | 5.72659 | 34065 ft | 431 kts | 320° |
| 2026-05-03 22:07 | 45.40921 | 5.67813 | 34060 ft | 430 kts | 320° |
| 2026-05-03 22:08 | 45.45846 | 5.62955 | 34072 ft | 431 kts | 320° |
| 2026-05-03 22:08 | 45.50770 | 5.58091 | 34071 ft | 431 kts | 320° |
| 2026-05-03 22:09 | 45.55688 | 5.53221 | 34069 ft | 431 kts | 320° |
| 2026-05-03 22:10 | 45.63282 | 5.46267 | 34076 ft | 433 kts | 323° |
| 2026-05-03 22:10 | 45.68431 | 5.41785 | 34075 ft | 433 kts | 323° |
| 2026-05-03 22:11 | 45.73557 | 5.37247 | 34049 ft | 434 kts | 322° |
| 2026-05-03 22:11 | 45.78639 | 5.32675 | 34044 ft | 434 kts | 322° |
| 2026-05-03 22:12 | 45.83749 | 5.28058 | 34043 ft | 434 kts | 322° |
| 2026-05-03 22:12 | 45.88857 | 5.23438 | 34058 ft | 434 kts | 322° |
| 2026-05-03 22:13 | 45.93973 | 5.18813 | 34047 ft | 434 kts | 322° |
| 2026-05-03 22:13 | 45.99088 | 5.14182 | 34071 ft | 434 kts | 322° |
| 2026-05-03 22:14 | 46.04229 | 5.09562 | 34056 ft | 437 kts | 326° |
| 2026-05-03 22:14 | 46.09791 | 5.05873 | 34056 ft | 441 kts | 331° |
| 2026-05-03 22:15 | 46.15404 | 5.02304 | 34051 ft | 441 kts | 331° |
| 2026-05-03 22:15 | 46.20988 | 4.98752 | 34049 ft | 441 kts | 330° |
| 2026-05-03 22:16 | 46.26594 | 4.95174 | 34056 ft | 440 kts | 330° |
| 2026-05-03 22:16 | 46.32189 | 4.91584 | 34057 ft | 439 kts | 330° |
| 2026-05-03 22:17 | 46.37774 | 4.87993 | 34056 ft | 438 kts | 330° |
| 2026-05-03 22:17 | 46.43340 | 4.84410 | 34046 ft | 437 kts | 330° |
| 2026-05-03 22:18 | 46.48895 | 4.80823 | 34066 ft | 437 kts | 330° |
| 2026-05-03 22:18 | 46.53516 | 4.77834 | 34046 ft | 438 kts | 330° |
| 2026-05-03 22:19 | 46.60026 | 4.73613 | 34029 ft | 438 kts | 330° |
| 2026-05-03 22:19 | 46.64654 | 4.70599 | 34025 ft | 438 kts | 330° |
| 2026-05-03 22:20 | 46.70225 | 4.66965 | 34019 ft | 438 kts | 330° |
| 2026-05-03 22:20 | 46.75719 | 4.63195 | 34018 ft | 434 kts | 323° |
| 2026-05-03 22:21 | 46.80804 | 4.58499 | 34015 ft | 432 kts | 321° |
| 2026-05-03 22:21 | 46.85869 | 4.53778 | 34011 ft | 431 kts | 321° |
| 2026-05-03 22:22 | 46.90922 | 4.49046 | 34043 ft | 432 kts | 321° |
| 2026-05-03 22:22 | 46.96002 | 4.44288 | 33954 ft | 431 kts | 321° |
| 2026-05-03 22:22 | 46.98514 | 4.41941 | 33670 ft | 426 kts | 321° |
| 2026-05-03 22:23 | 47.01001 | 4.39618 | 33399 ft | 423 kts | 321° |
| 2026-05-03 22:23 | 47.03441 | 4.37333 | 33132 ft | 420 kts | 321° |
| 2026-05-03 22:23 | 47.05929 | 4.34993 | 32869 ft | 418 kts | 321° |
| 2026-05-03 22:23 | 47.08339 | 4.32721 | 32597 ft | 416 kts | 321° |
| 2026-05-03 22:24 | 47.10768 | 4.30424 | 32343 ft | 414 kts | 321° |
| 2026-05-03 22:24 | 47.13191 | 4.28134 | 32075 ft | 412 kts | 321° |
| 2026-05-03 22:24 | 47.15600 | 4.25857 | 31817 ft | 411 kts | 321° |
| 2026-05-03 22:24 | 47.17997 | 4.23591 | 31562 ft | 409 kts | 321° |
| 2026-05-03 22:25 | 47.20385 | 4.21329 | 31308 ft | 407 kts | 321° |
| 2026-05-03 22:25 | 47.22763 | 4.19073 | 31057 ft | 405 kts | 321° |
| 2026-05-03 22:25 | 47.25132 | 4.16822 | 30807 ft | 403 kts | 321° |
| 2026-05-03 22:25 | 47.27485 | 4.14583 | 30560 ft | 402 kts | 321° |
| 2026-05-03 22:26 | 47.29829 | 4.12349 | 30336 ft | 400 kts | 321° |
| 2026-05-03 22:26 | 47.32173 | 4.10116 | 30102 ft | 399 kts | 321° |
| 2026-05-03 22:26 | 47.34473 | 4.07925 | 29829 ft | 398 kts | 321° |
| 2026-05-03 22:26 | 47.36790 | 4.05717 | 29543 ft | 396 kts | 321° |
| 2026-05-03 22:27 | 47.39105 | 4.03508 | 29264 ft | 395 kts | 321° |
| 2026-05-03 22:27 | 47.41408 | 4.01308 | 28980 ft | 394 kts | 321° |
| 2026-05-03 22:27 | 47.43704 | 3.99116 | 28703 ft | 392 kts | 321° |
| 2026-05-03 22:27 | 47.45990 | 3.96930 | 28430 ft | 391 kts | 321° |
| 2026-05-03 22:28 | 47.48267 | 3.94744 | 28159 ft | 389 kts | 321° |
| 2026-05-03 22:28 | 47.50534 | 3.92564 | 27885 ft | 388 kts | 321° |
| 2026-05-03 22:28 | 47.52794 | 3.90388 | 27627 ft | 387 kts | 321° |
| 2026-05-03 22:28 | 47.55047 | 3.88217 | 27373 ft | 386 kts | 320° |
| 2026-05-03 22:29 | 47.57293 | 3.86049 | 27108 ft | 385 kts | 321° |
| 2026-05-03 22:29 | 47.59534 | 3.83884 | 26841 ft | 384 kts | 321° |
| 2026-05-03 22:29 | 47.61763 | 3.81729 | 26586 ft | 382 kts | 321° |
| 2026-05-03 22:29 | 47.63962 | 3.79601 | 26333 ft | 381 kts | 321° |
| 2026-05-03 22:30 | 47.66183 | 3.77452 | 26082 ft | 381 kts | 321° |
| 2026-05-03 22:30 | 47.68395 | 3.75310 | 25832 ft | 380 kts | 321° |
| 2026-05-03 22:30 | 47.70595 | 3.73181 | 25511 ft | 375 kts | 321° |
| 2026-05-03 22:30 | 47.72776 | 3.71069 | 25052 ft | 374 kts | 321° |
| 2026-05-03 22:31 | 47.74946 | 3.68968 | 24600 ft | 372 kts | 321° |
| 2026-05-03 22:31 | 47.77113 | 3.66862 | 24111 ft | 372 kts | 321° |
| 2026-05-03 22:31 | 47.79276 | 3.64751 | 23642 ft | 372 kts | 321° |
| 2026-05-03 22:31 | 47.81435 | 3.62642 | 23111 ft | 371 kts | 322° |
| 2026-05-03 22:32 | 47.83589 | 3.60538 | 22632 ft | 368 kts | 322° |
| 2026-05-03 22:32 | 47.85729 | 3.58448 | 22177 ft | 366 kts | 322° |
| 2026-05-03 22:32 | 47.87844 | 3.56360 | 21814 ft | 362 kts | 321° |
| 2026-05-03 22:32 | 47.89923 | 3.54299 | 21451 ft | 357 kts | 321° |
| 2026-05-03 22:33 | 47.91984 | 3.52251 | 20937 ft | 354 kts | 321° |
| 2026-05-03 22:33 | 47.94026 | 3.50211 | 20552 ft | 351 kts | 321° |
| 2026-05-03 22:33 | 47.96048 | 3.48185 | 20174 ft | 349 kts | 321° |
| 2026-05-03 22:33 | 47.98028 | 3.46193 | 19847 ft | 345 kts | 321° |
| 2026-05-03 22:34 | 48.00029 | 3.44171 | 19502 ft | 342 kts | 321° |
| 2026-05-03 22:34 | 48.01969 | 3.42203 | 19135 ft | 339 kts | 321° |
| 2026-05-03 22:34 | 48.03904 | 3.40233 | 18606 ft | 334 kts | 321° |
| 2026-05-03 22:34 | 48.05813 | 3.38282 | 17974 ft | 330 kts | 321° |
| 2026-05-03 22:35 | 48.07698 | 3.36355 | 17284 ft | 326 kts | 321° |
| 2026-05-03 22:35 | 48.09562 | 3.34450 | 16620 ft | 325 kts | 321° |
| 2026-05-03 22:35 | 48.11429 | 3.32543 | 16268 ft | 323 kts | 321° |
| 2026-05-03 22:35 | 48.13282 | 3.30652 | 15916 ft | 321 kts | 321° |
| 2026-05-03 22:36 | 48.15123 | 3.28774 | 15562 ft | 320 kts | 321° |
| 2026-05-03 22:36 | 48.16957 | 3.26902 | 15210 ft | 318 kts | 321° |
| 2026-05-03 22:36 | 48.18804 | 3.25014 | 14426 ft | 325 kts | 321° |
| 2026-05-03 22:36 | 48.20715 | 3.23056 | 13194 ft | 339 kts | 321° |
| 2026-05-03 22:37 | 48.22641 | 3.21070 | 12240 ft | 340 kts | 321° |
| 2026-05-03 22:37 | 48.24581 | 3.19064 | 11354 ft | 338 kts | 321° |
| 2026-05-03 22:37 | 48.26510 | 3.17063 | 10496 ft | 335 kts | 321° |
| 2026-05-03 22:37 | 48.28414 | 3.15081 | 9660 ft | 331 kts | 321° |
| 2026-05-03 22:38 | 48.30279 | 3.13137 | 8980 ft | 321 kts | 321° |
| 2026-05-03 22:38 | 48.32218 | 3.11556 | 8312 ft | 317 kts | 338° |
| 2026-05-03 22:38 | 48.34303 | 3.10672 | 8037 ft | 305 kts | 342° |
| 2026-05-03 22:38 | 48.36322 | 3.09905 | 7889 ft | 295 kts | 342° |
| 2026-05-03 22:39 | 48.38294 | 3.09166 | 7568 ft | 291 kts | 342° |
| 2026-05-03 22:39 | 48.40248 | 3.08434 | 7194 ft | 289 kts | 342° |
| 2026-05-03 22:39 | 48.42167 | 3.07705 | 6837 ft | 286 kts | 342° |
| 2026-05-03 22:39 | 48.44093 | 3.06970 | 6464 ft | 284 kts | 342° |
| 2026-05-03 22:40 | 48.46005 | 3.06238 | 6062 ft | 283 kts | 342° |
| 2026-05-03 22:40 | 48.47906 | 3.05506 | 5660 ft | 281 kts | 342° |
| 2026-05-03 22:40 | 48.49794 | 3.04782 | 5264 ft | 279 kts | 342° |
| 2026-05-03 22:40 | 48.51671 | 3.04064 | 4881 ft | 277 kts | 342° |
| 2026-05-03 22:41 | 48.53529 | 3.03354 | 4465 ft | 275 kts | 342° |
| 2026-05-03 22:41 | 48.55378 | 3.02642 | 4083 ft | 272 kts | 343° |
| 2026-05-03 22:41 | 48.57198 | 3.01922 | 4001 ft | 270 kts | 342° |
| 2026-05-03 22:41 | 48.59015 | 3.01195 | 4008 ft | 271 kts | 342° |
| 2026-05-03 22:42 | 48.60834 | 3.00469 | 3693 ft | 268 kts | 342° |
| 2026-05-03 22:42 | 48.62636 | 2.99748 | 3286 ft | 267 kts | 342° |
| 2026-05-03 22:42 | 48.64426 | 2.99032 | 3017 ft | 265 kts | 342° |
| 2026-05-03 22:42 | 48.66211 | 2.98319 | 3010 ft | 266 kts | 342° |
| 2026-05-03 22:43 | 48.68001 | 2.97604 | 3011 ft | 266 kts | 342° |
| 2026-05-03 22:43 | 48.69797 | 2.96884 | 3011 ft | 267 kts | 342° |
| 2026-05-03 22:43 | 48.71543 | 2.95993 | 2998 ft | 263 kts | 327° |
| 2026-05-03 22:43 | 48.72841 | 2.94134 | 3010 ft | 256 kts | 299° |
| 2026-05-03 22:44 | 48.73670 | 2.91793 | 3010 ft | 255 kts | 293° |
| 2026-05-03 22:44 | 48.74421 | 2.89413 | 2998 ft | 241 kts | 292° |
| 2026-05-03 22:44 | 48.75114 | 2.87205 | 2998 ft | 223 kts | 292° |
| 2026-05-03 22:44 | 48.75764 | 2.85136 | 3009 ft | 215 kts | 292° |
| 2026-05-03 22:45 | 48.76406 | 2.83091 | 3007 ft | 215 kts | 292° |
| 2026-05-03 22:45 | 48.77051 | 2.81045 | 3009 ft | 215 kts | 292° |
| 2026-05-03 22:45 | 48.77696 | 2.78998 | 3009 ft | 215 kts | 292° |
| 2026-05-03 22:45 | 48.78345 | 2.76945 | 3009 ft | 215 kts | 292° |
| 2026-05-03 22:46 | 48.78783 | 2.74872 | 3009 ft | 198 kts | 273° |
| 2026-05-03 22:46 | 48.78691 | 2.72850 | 2995 ft | 189 kts | 253° |
| 2026-05-03 22:46 | 48.78348 | 2.70969 | 3009 ft | 187 kts | 253° |
| 2026-05-03 22:46 | 48.78006 | 2.69073 | 3009 ft | 186 kts | 253° |
| 2026-05-03 22:47 | 48.77664 | 2.67178 | 3003 ft | 186 kts | 253° |
| 2026-05-03 22:47 | 48.77321 | 2.65288 | 3010 ft | 186 kts | 253° |
| 2026-05-03 22:47 | 48.76979 | 2.63403 | 3009 ft | 185 kts | 253° |
| 2026-05-03 22:47 | 48.76637 | 2.61517 | 3012 ft | 186 kts | 253° |
| 2026-05-03 22:48 | 48.76290 | 2.59610 | 2936 ft | 189 kts | 253° |
| 2026-05-03 22:48 | 48.75942 | 2.57698 | 2742 ft | 187 kts | 253° |
| 2026-05-03 22:48 | 48.75602 | 2.55835 | 2517 ft | 179 kts | 254° |
| 2026-05-03 22:48 | 48.75281 | 2.54074 | 2265 ft | 167 kts | 253° |
| 2026-05-03 22:49 | 48.74981 | 2.52430 | 2044 ft | 156 kts | 253° |
| 2026-05-03 22:49 | 48.74712 | 2.50956 | 1867 ft | 141 kts | 253° |
| 2026-05-03 22:49 | 48.74456 | 2.49558 | 1675 ft | 136 kts | 253° |
| 2026-05-03 22:49 | 48.74206 | 2.48190 | 1484 ft | 135 kts | 253° |
| 2026-05-03 22:50 | 48.73956 | 2.46814 | 1296 ft | 137 kts | 253° |
| 2026-05-03 22:50 | 48.73703 | 2.45427 | 1096 ft | 137 kts | 253° |
| 2026-05-03 22:50 | 48.73446 | 2.44028 | 941 ft | 138 kts | 253° |
| 2026-05-03 22:50 | 48.73184 | 2.42631 | 788 ft | 138 kts | 252° |
| 2026-05-03 22:51 | 48.72928 | 2.41234 | 555 ft | 137 kts | 253° |
| 2026-05-03 22:51 | 48.72680 | 2.39840 | 372 ft | 137 kts | 253° |
| 2026-05-03 22:51 | 48.72427 | 2.38491 | 296 ft | 121 kts | 253° |
| 2026-05-03 22:51 | 48.72279 | 2.37694 | 292 ft | 25 kts | 255° |
| 2026-05-03 22:52 | 48.72231 | 2.37430 | 289 ft | 26 kts | 254° |
| 2026-05-03 22:52 | 48.72180 | 2.37158 | 290 ft | 28 kts | 255° |
| 2026-05-03 22:52 | 48.72170 | 2.36872 | 291 ft | 23 kts | 277° |
| 2026-05-03 22:52 | 48.72186 | 2.36668 | 291 ft | 19 kts | 276° |
| 2026-05-03 22:53 | 48.72221 | 2.36468 | 292 ft | 21 kts | 298° |
| 2026-05-03 22:53 | 48.72315 | 2.36294 | 293 ft | 22 kts | 335° |
| 2026-05-03 22:53 | 48.72435 | 2.36242 | 293 ft | 12 kts | 344° |
| 2026-05-03 22:53 | 48.72507 | 2.36254 | 295 ft | 10 kts | 47° |
| 2026-05-03 22:54 | 48.72529 | 2.36350 | 292 ft | 9 kts | 77° |
| 2026-05-03 22:54 | 48.72543 | 2.36434 | 293 ft | 8 kts | 75° |
| 2026-05-03 22:54 | 48.72567 | 2.36560 | 294 ft | 14 kts | 74° |
| 2026-05-03 22:54 | 48.72600 | 2.36695 | 293 ft | 13 kts | 69° |
| 2026-05-03 22:55 | 48.72649 | 2.36786 | 291 ft | 11 kts | 25° |
| 2026-05-03 22:55 | 48.72716 | 2.36829 | 292 ft | 10 kts | 22° |
| 2026-05-03 22:55 | 48.72731 | 2.36839 | 294 ft | 0 kts | 22° |